Portada
METAR-TAF:

METAR-TAF

Aeroports :

Bedford, Massachusetts, Estats Units d'Amèrica

latitud: 42-28-06N, longitud: 071-17-40W, altitud: 40 m

Observació

L'informe es va fer fa 22 minuts, a les 15:51 UTC
Vent 6 kt del Oest
Temperatura 7°C
Humitat 61%
Pressió 1020 hPa
Visibilitat: 16.1 km
Cel clar

METAR: KBED 211551Z 28006KT 10SM CLR 07/00 A3012 RMK AO2 SLP215 T00670000

Hora: 11:13 (16:13 UTC)

Pronòstic

L'informe es va fer fa 4 hores i 52 minuts, a les 11:21 UTC
Pronòstic vàlid del 21 a les 12 UTC al 22 a les 12 UTC
Vent 6 kt del Nord-Oest
Visibilitat: 10 km
Cel clar
A partir de les 21 a les 2100 UTC
Vent 3 kt del Oest/Sud-Oest
Visibilitat: 10 km
Cel ennuvolat a una alçada de 12000 ft
A partir de les 22 a les 1100 UTC
Vent 6 kt del Sud/Sud-Oest
Visibilitat: 10 km
Cel ennuvolat a una alçada de 6000 ft

TAF: KBED 211121Z 2112/2212 31006KT P6SM SKC FM212100 24003KT P6SM BKN120 FM221100 21006KT P6SM BKN060

Observacions i pronòstics meteorològics de més de 4000 aeroports (METAR i TAF).

Les estacions disponibles són els punts grocs i vermells al mapa.

Posi el ratolí al punt desitjat per veure el nom de l'estació.

Feu clic per veure les observacions i els pronòstics meteorològics.

Per canviar el mapa: feu clic els botons verds amb una creu de color negre per apropar; al botó verd amb un guió per allunyar la imatge; o en les fletxes verdes per a mapes adjacents.


METAR-TAF: